createdAt,value
2022-09-02T00:00:30.681Z,19.50
2022-09-02T00:02:59.103Z,19.40
2022-09-02T00:05:26.325Z,19.30
2022-09-02T00:07:54.199Z,19.20
2022-09-02T00:10:21.320Z,19.10
2022-09-02T00:12:48.346Z,19.00
2022-09-02T00:15:16.731Z,19.00
2022-09-02T00:17:43.674Z,18.90
2022-09-02T00:20:10.593Z,19.00
2022-09-02T00:22:37.501Z,19.10
2022-09-02T00:25:04.797Z,19.20
2022-09-02T00:27:31.707Z,19.20
2022-09-02T00:29:58.597Z,19.10
2022-09-02T00:32:28.206Z,19.20
2022-09-02T00:34:56.949Z,19.30
2022-09-02T00:37:26.053Z,19.30
2022-09-02T00:39:53.565Z,19.40
2022-09-02T00:42:21.083Z,19.50
2022-09-02T00:44:48.774Z,19.50
2022-09-02T00:47:16.236Z,19.50
2022-09-02T00:49:47.380Z,19.50
2022-09-02T00:52:17.231Z,19.40
2022-09-02T00:54:46.852Z,19.50
2022-09-02T00:57:19.337Z,19.60
2022-09-02T00:59:48.579Z,19.70
2022-09-02T01:02:16.417Z,19.70
2022-09-02T01:04:46.765Z,19.80
2022-09-02T01:07:16.082Z,19.80
2022-09-02T01:09:43.308Z,19.80
2022-09-02T01:12:12.736Z,19.80
2022-09-02T01:14:39.843Z,19.70
2022-09-02T01:17:07.813Z,19.70
2022-09-02T01:19:36.614Z,19.70
2022-09-02T01:22:06.007Z,19.40
2022-09-02T01:24:34.722Z,19.20
2022-09-02T01:27:01.772Z,19.20
2022-09-02T01:29:29.484Z,19.10
2022-09-02T01:31:56.820Z,19.10
2022-09-02T01:34:23.811Z,19.20
2022-09-02T01:36:51.176Z,19.20
2022-09-02T01:39:20.032Z,19.10
2022-09-02T01:41:47.590Z,19.00
2022-09-02T01:44:16.916Z,19.00
2022-09-02T01:46:44.495Z,19.00
2022-09-02T01:49:11.842Z,19.00
2022-09-02T01:51:40.140Z,18.90
2022-09-02T01:54:07.331Z,19.00
2022-09-02T01:56:35.886Z,19.20
2022-09-02T01:59:03.129Z,19.20
2022-09-02T02:01:30.350Z,19.40
2022-09-02T02:03:57.587Z,19.50
2022-09-02T02:06:25.175Z,19.40
2022-09-02T02:08:53.929Z,19.30
2022-09-02T02:11:23.733Z,19.40
2022-09-02T02:13:57.091Z,19.40
2022-09-02T02:16:24.355Z,19.40
2022-09-02T02:18:51.329Z,19.30
2022-09-02T02:21:18.308Z,19.30
2022-09-02T02:23:47.757Z,19.20
2022-09-02T02:26:14.720Z,19.20
2022-09-02T02:28:41.809Z,19.10
2022-09-02T02:31:10.897Z,19.10
2022-09-02T02:34:49.762Z,19.00
2022-09-02T02:37:17.236Z,19.00
2022-09-02T02:40:26.103Z,19.10
2022-09-02T02:42:53.589Z,19.20
2022-09-02T02:45:23.262Z,19.20
2022-09-02T02:47:51.304Z,19.30
2022-09-02T02:50:20.707Z,19.30
2022-09-02T02:52:48.892Z,19.30
2022-09-02T02:55:17.115Z,19.30
2022-09-02T02:57:45.842Z,19.30
2022-09-02T03:00:14.798Z,19.40
2022-09-02T03:02:42.382Z,19.30
2022-09-02T03:05:10.157Z,19.20
2022-09-02T03:07:37.336Z,19.20
2022-09-02T03:10:08.349Z,19.10
2022-09-02T03:12:40.020Z,19.10
2022-09-02T03:15:09.650Z,19.00
2022-09-02T03:17:36.841Z,19.00
2022-09-02T03:20:04.768Z,19.00
2022-09-02T03:22:38.783Z,19.00
2022-09-02T03:25:09.034Z,18.90
2022-09-02T03:27:36.940Z,18.90
2022-09-02T03:30:04.883Z,18.70
2022-09-02T03:32:33.344Z,18.60
2022-09-02T03:35:00.974Z,18.50
2022-09-02T03:37:28.274Z,18.50
2022-09-02T03:39:55.360Z,18.30
2022-09-02T03:42:22.527Z,18.20
2022-09-02T03:44:51.204Z,18.30
2022-09-02T03:47:21.684Z,18.20
2022-09-02T03:49:54.924Z,18.20
2022-09-02T03:52:23.354Z,18.30
2022-09-02T03:54:50.915Z,18.40
2022-09-02T03:57:20.516Z,18.30
2022-09-02T03:59:48.752Z,18.20
2022-09-02T04:02:16.266Z,18.20
2022-09-02T04:04:43.416Z,18.10
2022-09-02T04:07:11.790Z,17.90
2022-09-02T04:09:40.000Z,17.90
2022-09-02T04:12:08.425Z,17.80
2022-09-02T04:14:35.406Z,17.90
2022-09-02T04:20:25.845Z,17.90
2022-09-02T04:22:52.932Z,18.10
2022-09-02T04:25:20.336Z,18.10
2022-09-02T04:27:54.809Z,18.10
2022-09-02T04:30:24.450Z,18.20
2022-09-02T04:32:52.151Z,18.30
2022-09-02T04:35:19.655Z,18.30
2022-09-02T04:37:49.211Z,18.40
2022-09-02T04:40:16.951Z,18.50
2022-09-02T04:42:44.824Z,18.50
2022-09-02T04:45:12.143Z,18.30
2022-09-02T04:47:40.343Z,18.50
2022-09-02T04:50:08.606Z,18.80
2022-09-02T04:52:37.626Z,18.80
2022-09-02T04:55:07.269Z,18.80
2022-09-02T04:57:34.788Z,18.80
2022-09-02T05:00:07.211Z,18.60
2022-09-02T05:02:35.022Z,18.80
2022-09-02T05:05:02.744Z,18.70
2022-09-02T05:07:38.212Z,18.80
2022-09-02T05:10:07.556Z,19.00
2022-09-02T05:12:40.542Z,18.90
2022-09-02T05:15:08.726Z,19.20
2022-09-02T05:17:36.615Z,19.30
2022-09-02T05:20:04.412Z,19.50
2022-09-02T05:22:32.992Z,19.50
2022-09-02T05:25:03.399Z,19.60
2022-09-02T05:27:33.421Z,19.70
2022-09-02T05:30:00.633Z,19.80
2022-09-02T05:32:35.573Z,19.80
2022-09-02T05:35:05.631Z,19.50
2022-09-02T05:37:34.383Z,19.70
2022-09-02T05:40:01.806Z,19.90
2022-09-02T05:42:30.880Z,20.00
2022-09-02T05:44:59.793Z,20.00
2022-09-02T05:47:28.044Z,19.90
2022-09-02T05:49:55.494Z,19.70
2022-09-02T05:52:24.181Z,19.60
2022-09-02T05:54:54.215Z,19.80
2022-09-02T05:57:22.728Z,20.10
2022-09-02T06:00:17.664Z,20.30
2022-09-02T06:02:53.444Z,20.30
2022-09-02T06:05:26.452Z,20.60
2022-09-02T06:08:01.941Z,20.80
2022-09-02T06:11:02.646Z,20.90
2022-09-02T06:13:30.304Z,21.30
2022-09-02T06:15:57.909Z,21.50
2022-09-02T06:18:28.048Z,21.20
2022-09-02T06:20:56.784Z,21.30
2022-09-02T06:23:26.634Z,21.30
2022-09-02T06:25:53.932Z,21.10
2022-09-02T06:28:22.403Z,21.10
2022-09-02T06:30:50.498Z,20.90
2022-09-02T06:33:22.568Z,20.80
2022-09-02T06:35:49.985Z,20.90
2022-09-02T06:38:19.855Z,20.70
2022-09-02T06:40:48.452Z,20.70
2022-09-02T06:43:15.593Z,20.80
2022-09-02T06:46:02.806Z,21.00
2022-09-02T06:48:30.802Z,21.30
2022-09-02T06:50:57.831Z,21.50
2022-09-02T06:53:24.814Z,21.50
2022-09-02T06:55:52.440Z,21.80
2022-09-02T06:58:22.250Z,22.20
2022-09-02T07:00:49.523Z,23.80
2022-09-02T07:03:36.732Z,25.30
2022-09-02T07:06:09.367Z,27.10
2022-09-02T07:08:38.664Z,27.80
2022-09-02T07:11:06.608Z,27.40
2022-09-02T07:13:34.172Z,27.20
2022-09-02T07:16:01.422Z,27.00
2022-09-02T07:18:29.971Z,26.40
2022-09-02T07:20:57.045Z,26.10
2022-09-02T07:23:24.753Z,25.90
2022-09-02T07:25:52.663Z,26.10
2022-09-02T07:28:20.495Z,26.60
2022-09-02T07:30:48.821Z,26.40
2022-09-02T07:33:19.617Z,26.20
2022-09-02T07:35:49.164Z,26.00
2022-09-02T07:38:18.261Z,26.20
2022-09-02T07:40:47.012Z,26.00
2022-09-02T07:43:15.803Z,25.80
2022-09-02T07:45:43.861Z,25.70
2022-09-02T07:48:11.675Z,25.80
2022-09-02T07:50:39.102Z,25.90
2022-09-02T07:53:11.568Z,26.10
2022-09-02T07:55:41.126Z,26.00
2022-09-02T07:58:08.659Z,25.90
2022-09-02T08:00:36.583Z,25.60
2022-09-02T08:03:09.768Z,25.30
2022-09-02T08:05:41.869Z,25.20
2022-09-02T08:08:10.514Z,25.10
2022-09-02T08:10:37.631Z,25.00
2022-09-02T08:13:06.776Z,25.00
2022-09-02T08:15:34.427Z,24.90
2022-09-02T08:18:01.830Z,24.90
2022-09-02T08:20:30.539Z,24.90
2022-09-02T08:23:10.996Z,25.10
2022-09-02T08:25:41.074Z,25.70
2022-09-02T08:28:08.396Z,26.30
2022-09-02T08:30:35.516Z,26.20
2022-09-02T08:33:02.467Z,26.10
2022-09-02T08:35:29.388Z,25.80
2022-09-02T08:37:58.481Z,25.90
2022-09-02T08:40:31.520Z,25.90
2022-09-02T08:43:01.194Z,26.20
2022-09-02T08:45:30.441Z,26.50
2022-09-02T08:48:01.940Z,27.20
2022-09-02T08:50:30.284Z,27.90
2022-09-02T08:53:01.701Z,28.00
2022-09-02T08:55:34.890Z,28.30
2022-09-02T08:58:03.413Z,28.30
2022-09-02T09:00:35.125Z,28.10
2022-09-02T09:03:04.545Z,28.10
2022-09-02T09:05:36.713Z,28.10
2022-09-02T09:08:09.661Z,28.30
2022-09-02T09:10:45.570Z,27.90
2022-09-02T09:13:22.005Z,28.20
2022-09-02T09:15:52.346Z,28.30
2022-09-02T09:18:21.008Z,28.50
2022-09-02T09:20:49.046Z,28.90
2022-09-02T09:23:24.134Z,28.70
2022-09-02T09:25:54.615Z,28.80
2022-09-02T09:28:23.115Z,29.50
2022-09-02T09:30:50.190Z,29.10
2022-09-02T09:33:18.189Z,28.70
2022-09-02T09:35:49.668Z,28.70
2022-09-02T09:38:16.626Z,28.40
2022-09-02T09:40:43.730Z,28.50
2022-09-02T09:43:15.788Z,29.30
2022-09-02T09:45:45.775Z,29.20
2022-09-02T09:48:23.400Z,29.10
2022-09-02T09:51:05.410Z,29.20
2022-09-02T09:55:53.494Z,29.30
2022-09-02T09:58:20.935Z,29.20
2022-09-02T10:00:48.208Z,29.50
2022-09-02T10:03:21.064Z,29.80
2022-09-02T10:05:48.452Z,30.20
2022-09-02T10:08:20.053Z,30.50
2022-09-02T10:10:57.570Z,30.70
2022-09-02T10:13:25.782Z,30.10
2022-09-02T10:16:00.663Z,29.80
2022-09-02T10:18:32.680Z,30.00
2022-09-02T10:21:18.671Z,30.50
2022-09-02T10:24:51.327Z,30.20
2022-09-02T10:27:22.188Z,30.50
2022-09-02T10:29:54.987Z,30.30
2022-09-02T10:32:29.528Z,30.70
2022-09-02T10:35:03.101Z,30.50
2022-09-02T10:37:35.502Z,31.00
2022-09-02T10:40:09.104Z,31.30
2022-09-02T10:42:43.292Z,31.80
2022-09-02T10:45:14.406Z,31.90
2022-09-02T10:47:41.652Z,32.20
2022-09-02T10:50:13.461Z,32.60
2022-09-02T10:52:47.707Z,33.20
2022-09-02T10:55:20.069Z,33.10
2022-09-02T10:57:50.894Z,33.60
2022-09-02T11:00:19.273Z,33.50
2022-09-02T11:02:48.037Z,33.10
2022-09-02T11:05:16.650Z,33.20
2022-09-02T11:07:47.662Z,33.10
2022-09-02T11:10:20.221Z,33.40
2022-09-02T11:12:49.262Z,33.40
2022-09-02T11:15:18.773Z,33.50
2022-09-02T11:17:47.264Z,33.50
2022-09-02T11:20:18.976Z,33.70
2022-09-02T11:22:54.414Z,33.40
2022-09-02T11:25:24.936Z,33.10
2022-09-02T11:27:54.823Z,33.70
2022-09-02T11:30:23.840Z,32.90
2022-09-02T11:32:54.764Z,33.20
2022-09-02T11:35:27.387Z,33.00
2022-09-02T11:37:57.714Z,32.70
2022-09-02T11:40:34.674Z,32.30
2022-09-02T11:43:19.431Z,32.20
2022-09-02T11:46:03.230Z,32.30
2022-09-02T11:48:48.904Z,32.30
2022-09-02T11:51:33.841Z,31.70
2022-09-02T11:54:01.761Z,31.50
2022-09-02T11:56:37.150Z,31.70
2022-09-02T11:59:05.700Z,31.00
2022-09-02T12:01:33.837Z,31.30
2022-09-02T12:04:55.956Z,32.00
2022-09-02T12:07:11.288Z,33.50
2022-09-02T12:12:31.129Z,32.90
2022-09-02T12:15:09.576Z,32.10
2022-09-02T12:17:52.204Z,31.70
2022-09-02T12:20:34.083Z,31.20
2022-09-02T12:23:01.411Z,31.30
2022-09-02T12:25:38.302Z,31.90
2022-09-02T12:28:25.943Z,31.80
2022-09-02T12:31:09.509Z,31.90
2022-09-02T12:33:38.832Z,32.40
2022-09-02T12:36:06.613Z,32.80
2022-09-02T12:38:34.464Z,32.40
2022-09-02T12:41:13.616Z,31.40
2022-09-02T12:43:47.642Z,30.50
2022-09-02T12:46:21.494Z,29.70
2022-09-02T12:48:57.123Z,29.20
2022-09-02T12:51:42.882Z,29.10
2022-09-02T12:54:09.842Z,29.20
2022-09-02T12:56:36.757Z,28.80
2022-09-02T12:59:04.271Z,28.90
2022-09-02T13:01:37.444Z,28.60
2022-09-02T13:04:26.350Z,28.40
2022-09-02T13:07:14.057Z,27.90
2022-09-02T13:09:50.109Z,27.70
2022-09-02T13:12:41.594Z,27.70
2022-09-02T13:15:19.125Z,27.60
2022-09-02T13:18:01.853Z,28.10
2022-09-02T13:20:44.041Z,28.10
2022-09-02T13:23:31.428Z,28.10
2022-09-02T13:26:07.133Z,28.20
2022-09-02T13:28:52.125Z,28.20
2022-09-02T13:31:21.545Z,28.60
2022-09-02T13:33:57.261Z,28.80
2022-09-02T13:36:27.488Z,29.00
2022-09-02T13:38:54.537Z,29.70
2022-09-02T13:41:33.163Z,29.80
2022-09-02T13:44:10.101Z,30.00
2022-09-02T13:46:44.625Z,30.50
2022-09-02T13:49:19.123Z,31.60
2022-09-02T13:51:47.488Z,31.80
2022-09-02T13:54:23.418Z,31.90
2022-09-02T13:56:52.144Z,32.10
2022-09-02T13:59:31.125Z,32.30
2022-09-02T14:01:58.177Z,32.60
2022-09-02T14:04:25.760Z,32.40
2022-09-02T14:06:53.905Z,32.50
2022-09-02T14:09:22.151Z,32.00
2022-09-02T14:11:49.675Z,31.40
2022-09-02T14:14:19.792Z,31.00
2022-09-02T14:16:46.948Z,30.70
2022-09-02T14:19:23.800Z,30.20
2022-09-02T14:21:51.609Z,30.20
2022-09-02T14:24:20.497Z,30.40
2022-09-02T14:26:48.281Z,30.40
2022-09-02T14:29:16.040Z,30.40
2022-09-02T14:31:45.053Z,30.30
2022-09-02T14:34:30.842Z,30.50
2022-09-02T14:36:57.796Z,30.50
2022-09-02T14:39:24.810Z,30.90
2022-09-02T14:41:55.317Z,30.60
2022-09-02T14:44:32.956Z,30.30
2022-09-02T14:47:12.560Z,29.70
2022-09-02T14:50:01.477Z,29.70
2022-09-02T14:52:36.614Z,29.40
2022-09-02T14:55:16.710Z,29.80
2022-09-02T14:57:43.642Z,29.90
2022-09-02T15:00:15.035Z,29.80
2022-09-02T15:02:44.195Z,29.70
2022-09-02T15:05:14.480Z,30.00
2022-09-02T15:07:41.665Z,29.50
2022-09-02T15:10:09.807Z,29.20
2022-09-02T15:12:38.502Z,29.20
2022-09-02T15:15:09.186Z,29.00
2022-09-02T15:17:36.471Z,29.20
2022-09-02T15:20:08.259Z,29.30
2022-09-02T15:22:38.597Z,28.90
2022-09-02T15:25:09.498Z,28.50
2022-09-02T15:27:37.087Z,28.50
2022-09-02T15:30:09.411Z,28.50
2022-09-02T15:32:36.619Z,28.30
2022-09-02T15:35:03.746Z,28.00
2022-09-02T15:37:35.122Z,28.20
2022-09-02T15:40:02.404Z,28.00
2022-09-02T15:42:29.363Z,28.00
2022-09-02T15:44:56.428Z,28.10
2022-09-02T15:47:23.404Z,28.00
2022-09-02T15:49:52.028Z,28.00
2022-09-02T15:52:18.979Z,27.60
2022-09-02T15:54:47.363Z,27.40
2022-09-02T15:57:14.713Z,27.30
2022-09-02T15:59:42.288Z,27.50
2022-09-02T16:02:09.561Z,27.60
2022-09-02T16:06:10.488Z,27.60
2022-09-02T16:08:37.915Z,27.70
2022-09-02T16:11:07.020Z,27.90
2022-09-02T16:13:35.049Z,27.90
2022-09-02T16:16:04.171Z,28.10
2022-09-02T16:18:31.608Z,28.00
2022-09-02T16:20:58.708Z,27.90
2022-09-02T16:23:30.104Z,27.70
2022-09-02T16:26:12.601Z,27.70
2022-09-02T16:28:42.639Z,27.80
2022-09-02T16:31:11.316Z,27.80
2022-09-02T16:33:40.315Z,27.70
2022-09-02T16:36:08.613Z,27.70
2022-09-02T16:38:37.342Z,27.50
2022-09-02T16:41:04.717Z,27.50
2022-09-02T16:43:32.942Z,27.40
2022-09-02T16:46:04.014Z,27.20
2022-09-02T16:48:35.403Z,27.20
2022-09-02T16:51:06.405Z,27.30
2022-09-02T16:53:33.653Z,27.30
2022-09-02T16:56:03.190Z,27.00
2022-09-02T16:58:35.057Z,27.00
2022-09-02T17:01:05.466Z,27.00
2022-09-02T17:03:32.874Z,27.00
2022-09-02T17:06:00.158Z,27.00
2022-09-02T17:08:27.288Z,26.90
2022-09-02T17:11:18.285Z,26.80
2022-09-02T17:13:47.000Z,26.80
2022-09-02T17:16:14.314Z,27.00
2022-09-02T17:18:41.486Z,27.30
2022-09-02T17:21:19.495Z,27.20
2022-09-02T17:23:47.163Z,27.20
2022-09-02T17:26:16.840Z,26.90
2022-09-02T17:28:47.638Z,27.00
2022-09-02T17:31:21.261Z,27.10
2022-09-02T17:33:49.282Z,27.00
2022-09-02T17:36:17.122Z,26.80
2022-09-02T17:38:44.589Z,26.80
2022-09-02T17:41:31.092Z,26.80
2022-09-02T17:43:59.960Z,26.70
2022-09-02T17:46:27.171Z,26.70
2022-09-02T17:49:15.810Z,26.60
2022-09-02T17:51:44.348Z,26.70
2022-09-02T17:54:13.160Z,26.70
2022-09-02T17:56:59.835Z,26.60
2022-09-02T17:59:38.744Z,26.70
2022-09-02T18:02:48.744Z,26.70
2022-09-02T18:05:17.643Z,26.60
2022-09-02T18:07:50.691Z,26.60
2022-09-02T18:10:17.907Z,26.60
2022-09-02T18:12:45.218Z,26.60
2022-09-02T18:15:16.281Z,26.60
2022-09-02T18:17:46.124Z,26.50
2022-09-02T18:20:17.127Z,26.50
2022-09-02T18:22:49.320Z,26.50
2022-09-02T18:25:27.397Z,26.50
2022-09-02T18:28:06.774Z,26.40
2022-09-02T18:30:41.315Z,26.10
2022-09-02T18:33:18.061Z,25.90
2022-09-02T18:35:49.249Z,26.00
2022-09-02T18:38:20.033Z,26.10
2022-09-02T18:40:48.922Z,26.00
2022-09-02T18:43:24.562Z,25.90
2022-09-02T18:45:54.649Z,25.70
2022-09-02T18:48:23.608Z,25.30
2022-09-02T18:50:53.675Z,25.20
2022-09-02T18:53:22.141Z,25.30
2022-09-02T18:55:49.591Z,25.10
2022-09-02T18:58:23.808Z,25.30
2022-09-02T19:00:55.344Z,25.20
2022-09-02T19:03:22.808Z,25.00
2022-09-02T19:05:49.990Z,24.70
2022-09-02T19:08:35.123Z,24.80
2022-09-02T19:11:05.472Z,24.80
2022-09-02T19:13:42.574Z,24.40
2022-09-02T19:16:11.503Z,24.30
2022-09-02T19:18:38.850Z,24.30
2022-09-02T19:21:06.332Z,24.40
2022-09-02T19:23:37.129Z,24.30
2022-09-02T19:26:04.486Z,24.40
2022-09-02T19:28:31.807Z,24.30
2022-09-02T19:31:01.998Z,24.10
2022-09-02T19:33:33.362Z,24.20
2022-09-02T19:36:00.827Z,24.30
2022-09-02T19:38:28.357Z,24.30
2022-09-02T19:40:55.592Z,24.30
2022-09-02T19:43:23.486Z,24.10
2022-09-02T19:45:51.528Z,24.20
2022-09-02T19:48:19.808Z,24.20
2022-09-02T19:50:49.139Z,24.10
2022-09-02T19:53:22.377Z,23.90
2022-09-02T19:55:51.069Z,23.70
2022-09-02T19:58:21.735Z,23.50
2022-09-02T20:00:49.559Z,23.50
2022-09-02T20:03:17.808Z,23.40
2022-09-02T20:05:45.245Z,23.30
2022-09-02T20:08:14.067Z,23.20
2022-09-02T20:10:41.083Z,23.20
2022-09-02T20:13:13.605Z,23.10
2022-09-02T20:15:40.706Z,23.00
2022-09-02T20:18:10.483Z,23.00
2022-09-02T20:20:41.467Z,22.80
2022-09-02T20:23:08.984Z,22.70
2022-09-02T20:25:47.467Z,22.50
2022-09-02T20:28:24.101Z,22.40
2022-09-02T20:31:04.600Z,22.30
2022-09-02T20:33:38.710Z,22.20
2022-09-02T20:36:21.193Z,22.10
2022-09-02T20:39:15.967Z,22.00
2022-09-02T20:41:52.578Z,21.90
2022-09-02T20:44:30.446Z,21.80
2022-09-02T20:47:20.039Z,21.70
2022-09-02T20:50:00.514Z,21.60
2022-09-02T20:52:39.297Z,21.60
2022-09-02T20:55:11.306Z,21.70
2022-09-02T20:58:17.383Z,21.70
2022-09-02T21:01:01.817Z,21.70
2022-09-02T21:03:41.528Z,21.70
2022-09-02T21:06:10.929Z,21.70
2022-09-02T21:08:47.073Z,21.60
2022-09-02T21:11:15.872Z,21.50
2022-09-02T21:13:50.004Z,21.40
2022-09-02T21:16:23.226Z,21.40
2022-09-02T21:19:03.354Z,21.20
2022-09-02T21:21:36.708Z,21.10
2022-09-02T21:24:09.780Z,21.20
2022-09-02T21:26:43.073Z,21.20
2022-09-02T21:29:18.080Z,21.20
2022-09-02T21:31:50.948Z,21.20
2022-09-02T21:34:24.895Z,21.30
2022-09-02T21:36:53.300Z,21.30
2022-09-02T21:39:20.614Z,21.20
2022-09-02T21:41:51.862Z,21.30
2022-09-02T21:46:21.075Z,21.40
2022-09-02T21:48:57.842Z,21.80
2022-09-02T21:51:33.776Z,21.90
2022-09-02T21:54:16.610Z,21.80
2022-09-02T21:56:57.616Z,22.10
2022-09-02T21:59:55.231Z,22.20
2022-09-02T22:02:33.196Z,22.20
2022-09-02T22:05:07.611Z,22.10
2022-09-02T22:07:42.301Z,22.30
2022-09-02T22:10:16.822Z,22.10
2022-09-02T22:12:52.161Z,21.90
2022-09-02T22:15:27.980Z,21.80
2022-09-02T22:18:04.681Z,21.70
2022-09-02T22:21:01.895Z,21.80
2022-09-02T22:23:30.141Z,21.90
2022-09-02T22:26:08.313Z,21.90
2022-09-02T22:28:40.962Z,22.10
2022-09-02T22:31:11.159Z,22.00
2022-09-02T22:33:46.130Z,22.00
2022-09-02T22:36:26.543Z,21.80
2022-09-02T22:38:54.140Z,21.60
2022-09-02T22:41:28.701Z,21.50
2022-09-02T22:44:02.411Z,21.60
2022-09-02T22:47:04.273Z,21.70
2022-09-02T22:49:54.736Z,21.80
2022-09-02T22:52:45.964Z,21.60
2022-09-02T22:55:13.861Z,21.80
2022-09-02T22:57:52.163Z,21.70
2022-09-02T23:00:20.784Z,21.60
2022-09-02T23:02:52.337Z,21.60
2022-09-02T23:05:49.649Z,21.40
2022-09-02T23:08:21.814Z,21.50
2022-09-02T23:10:56.601Z,21.50
2022-09-02T23:13:36.378Z,21.50
2022-09-02T23:16:13.829Z,21.30
2022-09-02T23:18:55.349Z,21.40
2022-09-02T23:21:30.621Z,21.50
2022-09-02T23:24:09.418Z,21.30
2022-09-02T23:26:45.424Z,21.30
2022-09-02T23:29:18.546Z,21.30
2022-09-02T23:32:43.929Z,21.20
2022-09-02T23:35:17.406Z,21.10
2022-09-02T23:37:52.576Z,21.20
2022-09-02T23:40:22.999Z,21.10
2022-09-02T23:42:50.476Z,21.10
2022-09-02T23:45:22.119Z,21.10
2022-09-02T23:48:09.265Z,20.90
2022-09-02T23:50:49.104Z,21.00
2022-09-02T23:53:22.415Z,20.90
2022-09-02T23:56:01.481Z,20.90
2022-09-02T23:58:43.620Z,21.10
